Time;durP1;ratioP1;P1;durP2;ratioP2;P2;SDS_P1;SDS_P2;PMS_P1;PMS_P2;Temp;Humidity;BMP_temperature;BMP_pressure;BME280_temperature;BME280_humidity;BME280_pressure;Samples;Min_cycle;Max_cycle;Signal;HPM_P1;HPM_P2
2022/10/27 00:01:02;;;;;;;9.52;5.20;;;14.70;99.90;;;17.65;56.15;98399.09;4926038;29;20046;-53
2022/10/27 00:03:30;;;;;;;10.55;4.25;;;14.60;99.90;;;17.57;56.34;98402.72;4925845;29;20239;-53
2022/10/27 00:06:04;;;;;;;7.07;4.38;;;14.60;99.90;;;17.56;56.03;98400.19;4925297;29;20051;-51
2022/10/27 00:08:33;;;;;;;10.10;4.18;;;14.50;99.90;;;17.49;56.04;98395.56;4925522;29;20079;-54
2022/10/27 00:11:04;;;;;;;8.95;4.10;;;14.40;99.90;;;17.46;56.14;98395.09;4907877;29;20056;-53
2022/10/27 00:13:33;;;;;;;9.25;4.13;;;14.40;99.90;;;17.43;55.91;98399.03;4909199;29;20250;-50
2022/10/27 00:16:14;;;;;;;5.63;4.78;;;14.40;99.90;;;17.41;56.18;98397.50;4910248;29;20339;-54
2022/10/27 00:18:43;;;;;;;6.05;4.25;;;14.40;99.90;;;17.37;56.32;98393.53;4906757;29;20056;-53
2022/10/27 00:21:16;;;;;;;8.13;4.88;;;14.30;99.90;;;17.37;56.54;98398.91;4906981;29;20055;-51
2022/10/27 00:23:46;;;;;;;11.60;5.28;;;14.30;99.90;;;17.36;56.51;98398.09;4890515;29;20059;-51
2022/10/27 00:26:15;;;;;;;10.82;5.25;;;14.40;99.90;;;17.36;56.51;98398.09;4906431;29;20392;-54
2022/10/27 00:28:43;;;;;;;8.80;5.13;;;14.40;99.90;;;17.35;56.39;98396.44;4907057;29;20052;-52
2022/10/27 00:31:18;;;;;;;10.90;5.30;;;14.40;99.90;;;17.35;56.76;98392.88;4906695;29;20060;-52
2022/10/27 00:33:48;;;;;;;13.75;4.70;;;14.40;99.90;;;17.31;57.08;98397.78;4906739;29;20057;-50
2022/10/27 00:36:23;;;;;;;12.25;4.38;;;14.30;99.90;;;17.27;56.93;98400.06;4906327;29;20074;-53
2022/10/27 00:38:56;;;;;;;6.07;4.50;;;14.30;99.90;;;17.29;57.29;98403.38;4906855;29;20049;-48
2022/10/27 00:41:27;;;;;;;11.18;5.57;;;14.30;99.90;;;17.29;56.89;98406.06;4910929;29;20048;-53
2022/10/27 00:43:57;;;;;;;8.10;5.10;;;14.30;99.90;;;17.25;56.84;98417.38;4912524;29;20412;-50
2022/10/27 00:46:45;;;;;;;10.80;4.88;;;14.30;99.90;;;17.23;56.56;98414.03;4912496;29;20044;-51
2022/10/27 00:49:18;;;;;;;10.02;5.82;;;14.20;99.90;;;17.20;56.68;98412.56;4912343;29;20040;-51
2022/10/27 00:51:52;;;;;;;11.02;4.90;;;14.20;99.90;;;17.17;56.56;98415.63;4912490;29;20055;-50
2022/10/27 00:54:22;;;;;;;9.98;4.85;;;14.10;99.90;;;17.11;56.37;98419.03;4911686;29;20242;-52
2022/10/27 00:56:52;;;;;;;8.18;4.60;;;14.00;99.90;;;17.06;56.56;98413.38;4911213;29;20280;-49
2022/10/27 00:59:21;;;;;;;11.98;4.82;;;13.90;99.90;;;16.91;56.79;98408.00;4911586;29;20254;-49
2022/10/27 01:01:51;;;;;;;9.05;5.07;;;13.80;99.90;;;16.90;56.95;98414.38;4912164;29;20040;-53
2022/10/27 01:04:51;;;;;;;9.77;5.45;;;13.80;99.90;;;16.88;57.04;98411.88;4911966;29;20052;-54
2022/10/27 01:07:21;;;;;;;13.32;6.68;;;13.80;99.90;;;16.91;57.19;98414.19;4929009;29;20047;-49
2022/10/27 01:09:49;;;;;;;13.68;5.85;;;13.80;99.90;;;16.88;57.24;98414.56;4911065;29;20050;-50
2022/10/27 01:12:17;;;;;;;14.82;6.80;;;13.90;99.90;;;16.86;57.68;98408.53;4912358;29;20070;-52
2022/10/27 01:14:45;;;;;;;12.18;6.00;;;13.90;99.90;;;16.85;57.49;98414.09;4922858;29;20050;-52
2022/10/27 01:17:32;;;;;;;11.93;5.32;;;13.80;99.90;;;16.86;57.57;98411.22;4909906;29;20045;-50
2022/10/27 01:20:53;;;;;;;8.95;6.00;;;13.80;99.90;;;16.83;57.28;98406.22;4890701;29;20049;-53
2022/10/27 01:24:06;;;;;;;10.60;5.53;;;13.80;99.90;;;16.84;57.35;98401.66;4891007;29;20044;-50
2022/10/27 01:26:46;;;;;;;8.20;5.03;;;13.80;99.90;;;16.83;57.41;98398.16;4891011;29;20106;-49
2022/10/27 01:29:47;;;;;;;7.18;5.18;;;13.80;99.90;;;16.79;57.18;98396.81;4891231;29;20060;-51
2022/10/27 01:32:51;;;;;;;12.02;5.38;;;13.80;99.90;;;16.77;57.23;98396.16;4890799;29;20059;-51
2022/10/27 01:35:43;;;;;;;8.00;4.90;;;13.70;99.90;;;16.77;57.57;98398.84;4890398;29;20409;-51
2022/10/27 01:38:27;;;;;;;12.68;6.32;;;13.70;99.90;;;16.73;57.76;98387.63;4889126;29;20052;-50
2022/10/27 01:41:38;;;;;;;8.25;5.75;;;13.70;99.90;;;16.73;57.58;98401.06;4909185;29;20050;-50
2022/10/27 01:44:19;;;;;;;12.18;5.93;;;13.70;99.90;;;16.76;57.76;98397.16;4912315;29;20312;-54
2022/10/27 01:46:49;;;;;;;11.82;6.68;;;13.70;99.90;;;16.76;57.85;98396.34;4912065;29;20062;-53
2022/10/27 01:49:17;;;;;;;12.90;6.45;;;13.70;99.90;;;16.76;57.69;98391.78;4927910;29;20052;-53
2022/10/27 01:51:44;;;;;;;11.50;6.10;;;13.80;99.90;;;16.75;57.86;98395.50;4927319;29;20054;-50
2022/10/27 01:54:13;;;;;;;9.70;6.55;;;13.80;99.90;;;16.77;57.64;98392.63;4927824;29;20052;-53
2022/10/27 01:57:12;;;;;;;10.02;5.57;;;13.80;99.90;;;16.73;58.06;98384.09;4911413;29;20044;-52
2022/10/27 02:00:06;;;;;;;10.20;6.05;;;13.80;99.90;;;16.71;58.41;98381.59;4928139;29;20043;-51
2022/10/27 02:02:48;;;;;;;13.65;6.38;;;13.80;99.90;;;16.75;58.61;98376.69;4927644;29;20067;-50
2022/10/27 02:05:46;;;;;;;11.48;6.47;;;13.90;99.90;;;16.77;58.61;98382.72;4927582;29;20048;-50
2022/10/27 02:08:53;;;;;;;11.45;5.47;;;13.90;99.90;;;16.83;58.55;98386.56;4927744;29;20054;-50
2022/10/27 02:11:21;;;;;;;8.70;5.93;;;14.00;99.90;;;16.86;58.72;98389.69;4899527;29;20063;-50
2022/10/27 02:13:49;;;;;;;12.35;6.15;;;14.00;99.90;;;16.86;58.74;98386.19;4910971;29;20058;-52
2022/10/27 02:16:29;;;;;;;9.02;6.20;;;14.00;99.90;;;16.83;58.72;98387.38;4893559;29;20056;-49
2022/10/27 02:19:12;;;;;;;11.15;5.65;;;14.00;99.90;;;16.86;58.62;98386.19;4892786;29;20045;-49
2022/10/27 02:21:43;;;;;;;10.27;5.72;;;13.90;99.90;;;16.86;58.52;98395.06;4892327;29;20044;-54
2022/10/27 02:24:11;;;;;;;15.68;7.10;;;13.90;99.90;;;16.87;58.74;98393.25;4892026;29;20045;-50
2022/10/27 02:26:52;;;;;;;9.48;5.72;;;13.90;99.90;;;16.88;58.78;98392.22;4908580;29;20056;-49
2022/10/27 02:29:40;;;;;;;19.60;6.07;;;14.00;99.90;;;16.87;58.71;98398.63;4892633;29;20052;-53
2022/10/27 02:32:18;;;;;;;11.25;5.90;;;14.10;99.90;;;16.89;59.10;98391.22;4893024;29;20377;-51
2022/10/27 02:34:48;;;;;;;11.27;5.50;;;14.20;99.90;;;16.92;59.06;98388.13;4892582;29;20048;-50
2022/10/27 02:37:40;;;;;;;9.50;5.63;;;14.20;99.90;;;16.94;59.03;98383.41;4892148;29;20059;-48
2022/10/27 02:40:09;;;;;;;8.80;5.43;;;14.30;99.90;;;16.97;59.33;98377.66;4908445;29;20048;-50
2022/10/27 02:42:37;;;;;;;12.20;4.97;;;14.30;99.90;;;16.97;59.27;98380.34;4891817;29;20235;-50
2022/10/27 02:45:05;;;;;;;10.80;6.35;;;14.30;99.90;;;17.00;59.35;98380.00;4918683;29;20044;-50
2022/10/27 02:47:33;;;;;;;11.27;5.68;;;14.40;99.90;;;17.00;59.21;98388.06;4926854;29;20054;-50
2022/10/27 02:50:01;;;;;;;11.70;6.65;;;14.40;99.90;;;17.00;59.44;98380.00;4927361;29;20242;-52
2022/10/27 02:52:29;;;;;;;13.98;6.38;;;14.40;99.90;;;17.00;59.31;98387.22;4927095;29;20048;-53
2022/10/27 02:54:57;;;;;;;11.52;5.90;;;14.40;99.90;;;17.03;59.23;98381.47;4926668;29;20047;-54
2022/10/27 02:57:24;;;;;;;12.88;5.72;;;14.40;99.90;;;17.06;59.35;98373.03;4926718;29;20089;-50
2022/10/27 02:59:52;;;;;;;13.18;6.30;;;14.40;99.90;;;17.09;59.35;98386.13;4927328;29;20056;-52
2022/10/27 03:02:22;;;;;;;11.48;5.43;;;14.40;99.90;;;17.09;59.36;98380.72;4926669;29;20059;-52
2022/10/27 03:04:50;;;;;;;11.27;6.80;;;14.40;99.90;;;17.09;59.14;98384.25;4910163;29;20242;-50
2022/10/27 03:07:19;;;;;;;10.43;5.88;;;14.30;99.90;;;17.08;59.24;98379.91;4926648;29;20070;-52
2022/10/27 03:09:47;;;;;;;11.55;5.80;;;14.30;99.90;;;17.08;59.37;98385.28;4926039;29;20052;-51
2022/10/27 03:12:15;;;;;;;10.10;5.25;;;14.30;99.90;;;17.11;59.12;98392.97;4926496;29;20060;-49
2022/10/27 03:14:43;;;;;;;10.45;6.90;;;14.30;99.90;;;17.13;59.39;98390.09;4921060;29;20048;-51
2022/10/27 03:17:11;;;;;;;10.93;7.22;;;14.30;99.90;;;17.16;59.15;98395.13;4907797;29;20055;-52
2022/10/27 03:19:39;;;;;;;10.40;5.80;;;14.30;99.90;;;17.15;58.92;98396.13;4907486;29;20053;-51
2022/10/27 03:22:06;;;;;;;8.95;5.95;;;14.30;99.90;;;17.14;59.08;98389.09;4907551;29;20343;-54
2022/10/27 03:24:34;;;;;;;9.98;6.05;;;14.30;99.90;;;17.16;58.92;98394.25;4906914;29;20056;-50
2022/10/27 03:27:02;;;;;;;9.70;5.88;;;14.30;99.90;;;17.15;58.65;98384.53;4907665;29;20045;-49
2022/10/27 03:29:30;;;;;;;10.38;8.13;;;14.30;99.90;;;17.12;58.65;98394.66;4907470;29;20052;-49
2022/10/27 03:31:58;;;;;;;14.85;11.73;;;14.20;99.90;;;17.10;58.48;98388.63;4907570;29;20347;-54
2022/10/27 03:34:26;;;;;;;11.45;7.05;;;14.20;99.90;;;17.06;58.45;98389.16;4907042;29;20056;-53
2022/10/27 03:36:54;;;;;;;13.13;5.85;;;14.10;99.90;;;17.01;58.45;98387.03;4907342;29;20067;-54
2022/10/27 03:39:21;;;;;;;9.93;6.10;;;14.00;99.90;;;16.99;58.57;98383.69;4907157;29;20071;-52
2022/10/27 03:41:49;;;;;;;11.32;6.25;;;14.00;99.90;;;16.97;58.58;98382.22;4890636;29;20045;-48
2022/10/27 03:44:17;;;;;;;10.73;6.47;;;14.00;99.90;;;16.94;58.60;98380.72;4912104;29;20261;-50
2022/10/27 03:46:45;;;;;;;9.88;5.90;;;14.00;99.90;;;16.93;58.44;98384.44;4926037;29;20056;-52
2022/10/27 03:49:13;;;;;;;11.38;6.25;;;13.90;99.90;;;16.89;58.32;98388.50;4926278;29;20054;-49
2022/10/27 03:51:41;;;;;;;12.88;6.13;;;13.90;99.90;;;16.88;58.57;98386.84;4926267;29;20054;-49
2022/10/27 03:54:09;;;;;;;10.77;6.25;;;13.90;99.90;;;16.87;58.67;98387.88;4925544;29;20048;-48
2022/10/27 03:56:37;;;;;;;12.55;6.72;;;13.90;99.90;;;16.80;58.73;98387.72;4925883;29;20048;-49
2022/10/27 03:59:05;;;;;;;13.35;6.25;;;13.80;99.90;;;16.74;59.06;98389.28;4923865;29;20058;-51
2022/10/27 04:01:35;;;;;;;12.95;7.03;;;13.80;99.90;;;16.76;59.31;98391.78;4926014;29;20044;-49
2022/10/27 04:04:03;;;;;;;15.30;7.10;;;13.80;99.90;;;16.74;59.43;98388.44;4925918;29;20070;-52
2022/10/27 04:06:31;;;;;;;15.32;6.68;;;13.80;99.90;;;16.74;59.41;98388.44;4925871;29;20044;-49
2022/10/27 04:08:59;;;;;;;11.93;6.80;;;13.80;99.90;;;16.71;59.31;98391.50;4925658;29;20048;-52
2022/10/27 04:11:26;;;;;;;12.68;6.15;;;13.80;99.90;;;16.68;59.34;98387.31;4924448;29;20223;-53
2022/10/27 04:13:54;;;;;;;10.07;5.78;;;13.70;99.90;;;16.70;59.19;98392.53;4925396;29;20113;-48
2022/10/27 04:16:22;;;;;;;10.50;6.43;;;13.80;99.90;;;16.73;58.95;98394.88;4907435;29;20057;-48
2022/10/27 04:18:50;;;;;;;12.85;6.43;;;13.80;99.90;;;16.76;59.00;98394.47;4906744;29;20052;-53
2022/10/27 04:21:18;;;;;;;10.98;5.90;;;13.80;99.90;;;16.72;58.93;98402.06;4907314;29;20238;-48
2022/10/27 04:23:46;;;;;;;12.82;6.60;;;13.80;99.90;;;16.72;58.92;98399.38;4906380;29;20053;-48
2022/10/27 04:26:14;;;;;;;10.25;5.80;;;13.80;99.90;;;16.72;58.51;98404.75;4906273;29;20048;-53
2022/10/27 04:28:41;;;;;;;9.23;5.65;;;13.70;99.90;;;16.68;58.46;98405.31;4906894;29;20044;-51
2022/10/27 04:31:09;;;;;;;16.75;7.72;;;13.70;99.90;;;16.65;58.58;98397.59;4906745;29;20045;-48
2022/10/27 04:33:37;;;;;;;15.10;9.65;;;13.60;99.90;;;16.60;58.72;98397.31;4906809;29;20245;-48
2022/10/27 04:36:06;;;;;;;14.23;7.25;;;13.60;99.90;;;16.57;58.86;98401.19;4906168;29;20058;-49
2022/10/27 04:38:33;;;;;;;10.85;5.72;;;13.60;99.90;;;16.53;58.80;98406.09;4906564;29;20057;-50
2022/10/27 04:41:04;;;;;;;11.07;6.80;;;13.50;99.90;;;16.51;58.99;98399.22;4907094;29;20056;-51
2022/10/27 04:43:32;;;;;;;10.05;5.55;;;13.50;99.90;;;16.49;58.83;98398.59;4906623;29;20052;-50
2022/10/27 04:45:59;;;;;;;6.55;5.55;;;13.50;99.90;;;16.50;58.68;98392.22;4924544;29;20054;-52
2022/10/27 04:48:27;;;;;;;11.38;5.88;;;13.50;99.90;;;16.47;58.63;98400.63;4925516;29;20056;-51
2022/10/27 04:50:55;;;;;;;10.38;6.63;;;13.40;99.90;;;16.44;58.65;98393.75;4925578;29;20054;-53
2022/10/27 04:53:23;;;;;;;12.52;7.20;;;13.30;99.90;;;16.42;58.50;98398.47;4925196;29;20074;-50
2022/10/27 04:55:53;;;;;;;12.85;6.60;;;13.30;99.90;;;16.37;58.93;98397.34;4924984;29;20055;-49
2022/10/27 04:58:21;;;;;;;13.27;7.22;;;13.30;99.90;;;16.33;59.42;98396.88;4925368;29;20358;-50
2022/10/27 05:00:49;;;;;;;13.50;7.05;;;13.30;99.90;;;16.30;59.67;98390.00;4925321;29;20058;-52
2022/10/27 05:03:17;;;;;;;9.70;6.25;;;13.30;99.90;;;16.30;59.99;98400.75;4925316;29;20055;-52
2022/10/27 05:05:45;;;;;;;13.85;6.60;;;13.30;99.90;;;16.36;60.30;98395.66;4924908;29;20044;-50
2022/10/27 05:08:13;;;;;;;11.13;6.28;;;13.50;99.90;;;16.43;59.83;98388.56;4925184;29;20048;-52
2022/10/27 05:10:40;;;;;;;12.25;6.97;;;13.50;99.90;;;16.47;59.99;98390.69;4907604;29;20048;-52
2022/10/27 05:13:08;;;;;;;12.75;6.53;;;13.60;99.90;;;16.50;60.24;98386.84;4925444;29;20368;-49
2022/10/27 05:15:36;;;;;;;10.60;6.32;;;13.60;99.90;;;16.52;60.03;98376.72;4912822;29;20251;-51
2022/10/27 05:18:04;;;;;;;8.57;6.40;;;13.70;99.90;;;16.55;59.94;98379.03;4906093;29;20059;-51
2022/10/27 05:20:37;;;;;;;11.43;6.25;;;13.80;99.90;;;16.57;60.00;98379.69;4906361;29;20381;-49
2022/10/27 05:23:05;;;;;;;12.05;6.18;;;13.80;99.90;;;16.57;59.89;98377.00;4906392;29;20040;-51
2022/10/27 05:25:33;;;;;;;9.85;7.07;;;13.80;99.90;;;16.58;59.98;98378.69;4905868;29;20051;-48
2022/10/27 05:28:07;;;;;;;8.88;5.70;;;13.80;99.90;;;16.56;60.09;98375.34;4909643;29;20070;-50
2022/10/27 05:30:35;;;;;;;12.68;6.18;;;13.90;99.90;;;16.57;59.76;98374.31;4909609;29;20444;-52
2022/10/27 05:33:03;;;;;;;10.93;6.03;;;13.90;99.90;;;16.57;59.89;98368.13;4909770;29;20079;-50
2022/10/27 05:35:31;;;;;;;12.43;6.90;;;13.90;99.90;;;16.57;59.99;98370.81;4909251;29;20354;-53
2022/10/27 05:37:59;;;;;;;10.82;6.38;;;13.80;99.90;;;16.51;60.02;98377.72;4909125;29;20049;-53
2022/10/27 05:40:33;;;;;;;13.10;7.38;;;13.80;99.90;;;16.48;60.06;98370.06;4909365;29;20059;-52
2022/10/27 05:43:02;;;;;;;11.25;6.10;;;13.80;99.90;;;16.48;60.00;98362.00;4909267;29;20044;-54
2022/10/27 05:45:30;;;;;;;14.55;6.40;;;13.80;99.90;;;16.51;59.96;98373.19;4908945;29;20110;-53
2022/10/27 05:48:04;;;;;;;12.15;6.70;;;13.80;99.90;;;16.53;60.10;98371.16;4908916;29;20224;-55
2022/10/27 05:50:33;;;;;;;;;;;13.80;99.90;;;16.66;59.76;98369.72;4908692;29;20059;-55
2022/10/27 05:53:02;;;;;;;10.48;6.57;;;13.80;99.90;;;16.62;59.57;98366.56;4909394;29;20206;-50
2022/10/27 05:55:29;;;;;;;15.48;7.60;;;13.80;99.90;;;16.56;59.76;98369.97;4908866;29;20067;-50
2022/10/27 05:58:01;;;;;;;16.45;7.50;;;13.80;99.90;;;16.53;60.17;98371.16;4907126;29;20053;-50
2022/10/27 06:00:32;;;;;;;14.02;6.85;;;13.80;99.90;;;16.53;60.00;98360.41;4909242;29;20048;-55
2022/10/27 06:03:03;;;;;;;14.40;7.22;;;13.90;99.90;;;16.58;60.04;98372.50;4909026;29;20230;-51
2022/10/27 06:05:34;;;;;;;13.82;8.15;;;13.90;99.90;;;16.56;59.94;98372.66;4908648;29;20243;-54
2022/10/27 06:08:01;;;;;;;13.05;6.72;;;14.00;99.90;;;16.56;59.82;98375.34;4908672;29;20055;-54
2022/10/27 06:10:29;;;;;;;11.00;8.50;;;13.90;99.90;;;16.56;59.79;98380.72;4907975;29;20053;-54
2022/10/27 06:13:02;;;;;;;21.60;6.70;;;13.90;99.90;;;16.58;59.59;98392.13;4908794;29;20365;-52
2022/10/27 06:15:33;;;;;;;14.65;7.50;;;13.90;99.90;;;16.56;59.52;98390.66;4908241;29;20052;-50
2022/10/27 06:18:02;;;;;;;11.88;7.50;;;13.80;99.90;;;16.53;59.14;98389.13;4904166;29;20359;-53
2022/10/27 06:20:31;;;;;;;12.10;6.40;;;13.70;99.90;;;16.51;59.40;98389.31;4890080;29;20059;-51
2022/10/27 06:23:00;;;;;;;11.85;6.00;;;13.70;99.90;;;16.49;59.43;98394.03;4889875;29;20037;-53
2022/10/27 06:25:27;;;;;;;12.07;6.25;;;13.60;99.90;;;16.44;59.20;98391.06;4889372;29;20049;-55
2022/10/27 06:27:55;;;;;;;11.93;8.35;;;13.50;99.90;;;16.43;59.22;98397.44;4889894;29;20063;-53
2022/10/27 06:30:23;;;;;;;24.60;11.40;;;13.50;99.90;;;16.34;59.41;98402.06;4889993;29;20044;-53
2022/10/27 06:32:51;;;;;;;14.27;7.90;;;13.30;99.90;;;16.28;59.25;98401.94;4889303;29;20055;-55
2022/10/27 06:35:20;;;;;;;12.85;7.03;;;13.20;99.90;;;16.26;59.34;98401.28;4888951;29;20067;-54
2022/10/27 06:37:48;;;;;;;10.93;7.53;;;13.20;99.90;;;16.27;59.32;98409.16;4889375;29;20437;-52
2022/10/27 06:40:18;;;;;;;16.17;7.15;;;13.20;99.90;;;16.30;59.24;98407.97;4890013;29;20053;-55
2022/10/27 06:42:49;;;;;;;9.32;5.93;;;13.30;99.90;;;16.35;59.34;98402.91;4904008;29;20055;-53
2022/10/27 06:45:33;;;;;;;8.82;5.70;;;13.40;99.90;;;16.41;59.64;98404.84;4918379;29;20052;-51
2022/10/27 06:48:01;;;;;;;9.43;6.25;;;13.50;99.90;;;16.40;59.54;98410.41;4926667;29;20067;-52
2022/10/27 06:50:30;;;;;;;9.43;6.05;;;13.60;99.90;;;16.43;59.73;98399.31;4926648;29;20350;-55
2022/10/27 06:53:01;;;;;;;8.05;5.75;;;13.70;99.90;;;16.48;59.63;98405.81;4927011;29;20058;-55
2022/10/27 06:55:30;;;;;;;14.10;5.93;;;13.80;99.90;;;16.54;59.76;98409.63;4926349;29;20048;-55
2022/10/27 06:57:58;;;;;;;11.43;6.25;;;13.80;99.90;;;16.56;59.62;98407.59;4926879;29;20082;-54
2022/10/27 07:00:26;;;;;;;12.93;6.20;;;13.80;99.90;;;16.59;59.54;98409.09;4923135;29;20254;-55
2022/10/27 07:02:54;;;;;;;10.98;5.85;;;13.90;99.90;;;16.60;59.63;98414.28;4920673;29;20055;-55
2022/10/27 07:05:22;;;;;;;11.27;6.55;;;13.90;99.90;;;16.54;59.64;98413.16;4907403;29;20052;-55
2022/10/27 07:07:51;;;;;;;9.48;5.70;;;13.90;99.90;;;16.52;59.88;98409.81;4891777;29;20053;-50
2022/10/27 07:10:20;;;;;;;8.35;5.45;;;13.90;99.90;;;16.54;59.94;98407.78;4889381;29;20056;-51
2022/10/27 07:13:00;;;;;;;10.35;5.63;;;13.90;99.90;;;16.59;59.96;98411.78;4894349;29;20048;-54
2022/10/27 07:15:31;;;;;;;10.25;6.10;;;14.00;99.90;;;16.63;60.08;98411.22;4906423;29;20044;-50
2022/10/27 07:18:04;;;;;;;10.43;6.00;;;14.00;99.90;;;16.65;59.79;98411.03;4907599;29;20051;-52
2022/10/27 07:20:34;;;;;;;12.00;6.00;;;14.10;99.90;;;16.68;60.01;98410.69;4891614;29;20044;-50
2022/10/27 07:23:02;;;;;;;10.98;6.28;;;14.10;99.90;;;16.72;59.80;98417.38;4907584;29;20059;-51
2022/10/27 07:25:32;;;;;;;12.65;6.57;;;14.20;99.90;;;16.70;60.02;98422.09;4907031;29;20055;-53
2022/10/27 07:28:02;;;;;;;9.18;7.18;;;14.20;99.90;;;16.66;60.06;98415.41;4907477;29;20223;-50
2022/10/27 07:30:34;;;;;;;10.02;5.57;;;14.20;99.90;;;16.70;59.95;98417.53;4907340;29;20351;-54
2022/10/27 07:33:03;;;;;;;13.95;6.55;;;14.20;99.90;;;16.72;59.86;98426.25;4905475;29;20352;-50
2022/10/27 07:35:32;;;;;;;10.18;6.40;;;14.20;99.90;;;16.70;60.02;98431.00;4906925;29;20236;-48
2022/10/27 07:38:00;;;;;;;10.43;7.20;;;14.20;99.90;;;16.72;59.89;98428.94;4907041;29;20057;-50
2022/10/27 07:40:28;;;;;;;8.60;5.70;;;14.30;99.90;;;16.74;59.88;98426.91;4906611;29;20052;-51
2022/10/27 07:43:00;;;;;;;12.73;6.18;;;14.20;99.90;;;16.79;59.80;98434.47;4906797;29;20040;-50
2022/10/27 07:45:38;;;;;;;9.35;6.38;;;14.20;99.90;;;16.84;59.95;98431.25;4906829;29;20063;-53
2022/10/27 07:48:12;;;;;;;10.15;6.40;;;14.30;99.90;;;16.86;60.11;98431.91;4906441;29;20235;-50
2022/10/27 07:50:41;;;;;;;9.23;5.80;;;14.30;99.90;;;16.88;60.09;98433.38;4907184;29;20251;-52
2022/10/27 07:53:10;;;;;;;10.63;6.68;;;14.30;99.90;;;16.92;60.05;98441.91;4890850;29;20070;-51
2022/10/27 07:55:37;;;;;;;10.93;6.07;;;14.40;99.90;;;16.96;60.28;98451.28;4906606;29;20051;-51
2022/10/27 07:58:12;;;;;;;10.65;6.05;;;14.50;99.90;;;17.00;60.11;98454.47;4906906;29;20327;-52
2022/10/27 08:00:43;;;;;;;8.10;5.05;;;14.50;99.90;;;17.04;60.31;98453.94;4907086;29;20048;-52
2022/10/27 08:03:29;;;;;;;9.07;5.80;;;14.50;99.90;;;17.14;60.23;98453.66;4890699;29;20055;-52
2022/10/27 08:06:02;;;;;;;9.52;5.78;;;14.60;99.90;;;17.25;59.98;98452.38;4906109;29;20057;-49
2022/10/27 08:08:30;;;;;;;8.90;5.10;;;14.60;99.90;;;17.31;59.69;98455.16;4906798;29;20048;-51
2022/10/27 08:10:58;;;;;;;10.18;7.88;;;14.70;99.90;;;17.35;59.68;98447.56;4907065;29;20063;-51
2022/10/27 08:13:26;;;;;;;16.05;5.80;;;14.70;99.90;;;17.43;59.68;98452.03;4906886;29;20049;-53
2022/10/27 08:15:58;;;;;;;9.77;5.20;;;14.80;99.90;;;17.48;59.64;98452.28;4905300;29;20060;-56
2022/10/27 08:18:26;;;;;;;9.43;4.72;;;14.90;99.90;;;17.54;59.36;98456.91;4890565;29;20052;-56
2022/10/27 08:20:54;;;;;;;9.05;4.50;;;15.00;99.90;;;17.59;59.40;98454.50;4906747;29;20049;-56
2022/10/27 08:23:24;;;;;;;7.80;4.70;;;15.10;99.90;;;17.63;59.51;98463.06;4906812;29;20373;-54
2022/10/27 08:25:52;;;;;;;8.63;5.03;;;15.10;99.90;;;17.70;59.38;98461.28;4905994;29;20059;-56
2022/10/27 08:28:20;;;;;;;10.10;5.03;;;15.20;99.90;;;17.74;59.03;98459.91;4906655;29;20068;-54
2022/10/27 08:30:51;;;;;;;9.48;5.50;;;15.20;99.90;;;17.81;59.04;98452.72;4906614;29;20315;-56
2022/10/27 08:33:21;;;;;;;9.75;6.20;;;15.30;99.90;;;17.82;59.07;98457.09;4890468;29;20056;-56
2022/10/27 08:35:50;;;;;;;9.80;4.20;;;15.30;99.90;;;17.87;59.22;98453.84;4906191;29;20048;-55
2022/10/27 08:38:19;;;;;;;12.48;5.28;;;15.40;99.90;;;17.88;59.08;98456.38;4906707;29;20048;-55
2022/10/27 08:41:28;;;;;;;9.05;5.25;;;15.40;99.90;;;17.97;59.23;98459.81;4890116;29;20048;-55
2022/10/27 08:44:02;;;;;;;11.48;4.63;;;15.50;99.90;;;18.07;59.00;98452.25;4906613;29;20246;-56
2022/10/27 08:46:38;;;;;;;;;;;15.60;99.90;;;18.21;58.77;98450.53;4906597;29;20055;-56
2022/10/27 08:49:23;;;;;;;9.15;4.93;;;15.60;99.90;;;18.24;58.70;98457.41;4906436;29;19934;-56
2022/10/27 08:51:57;;;;;;;9.57;4.53;;;15.60;99.90;;;18.23;58.80;98458.44;4906412;29;20048;-54
2022/10/27 08:54:27;;;;;;;6.35;4.28;;;15.70;99.90;;;18.28;58.73;98456.84;4905978;29;20056;-54
2022/10/27 08:57:01;;;;;;;8.65;4.53;;;15.70;99.90;;;18.29;58.51;98449.59;4906568;29;20049;-56
2022/10/27 08:59:30;;;;;;;9.45;4.72;;;15.80;99.90;;;18.35;58.74;98450.69;4905246;29;20048;-54
2022/10/27 09:02:30;;;;;;;7.57;5.00;;;15.80;99.90;;;18.41;58.49;98453.44;4909983;29;20054;-53
2022/10/27 09:05:17;;;;;;;11.82;4.20;;;15.90;99.90;;;18.49;58.15;98466.81;4892010;29;20044;-57
2022/10/27 09:08:01;;;;;;;7.80;3.88;;;16.00;99.90;;;18.56;58.12;98463.34;4910124;29;20048;-56
2022/10/27 09:10:58;;;;;;;8.25;4.15;;;16.00;99.90;;;18.63;57.93;98461.53;4893721;29;20049;-56
2022/10/27 09:14:29;;;;;;;8.25;4.38;;;16.10;99.90;;;18.68;58.10;98456.41;4904934;29;20269;-55
2022/10/27 09:17:07;;;;;;;9.95;4.93;;;16.20;99.90;;;18.74;57.67;98455.63;4884789;29;20053;-55
2022/10/27 09:19:48;;;;;;;8.93;4.13;;;16.30;99.90;;;18.83;57.54;98453.66;4894248;29;20361;-52
2022/10/27 09:22:19;;;;;;;8.98;3.50;;;16.30;99.90;;;18.88;57.33;98448.50;4893976;29;20053;-55
2022/10/27 09:25:00;;;;;;;6.35;4.10;;;16.30;99.90;;;18.94;57.32;98453.13;4892931;29;20061;-52
2022/10/27 09:27:29;;;;;;;6.22;3.70;;;16.40;99.90;;;19.01;57.13;98456.69;4909632;29;20436;-57
2022/10/27 09:30:04;;;;;;;10.52;3.67;;;16.50;99.90;;;19.05;56.87;98457.97;4893407;29;20239;-53
2022/10/27 09:32:41;;;;;;;8.55;3.90;;;16.60;99.90;;;19.16;56.58;98456.63;4894255;29;20059;-56
2022/10/27 09:35:15;;;;;;;9.35;3.60;;;16.60;99.90;;;19.22;56.43;98457.69;4893100;29;20362;-57
2022/10/27 09:37:48;;;;;;;11.95;4.43;;;16.70;99.90;;;19.31;56.28;98447.56;4893677;29;20063;-55
2022/10/27 09:40:22;;;;;;;8.35;3.80;;;16.70;99.90;;;19.36;56.00;98447.81;4909563;29;20059;-56
2022/10/27 09:42:54;;;;;;;14.15;4.05;;;16.80;98.80;;;19.44;55.66;98447.66;4908948;29;20056;-56
2022/10/27 09:45:25;;;;;;;6.50;3.28;;;16.80;97.70;;;19.46;55.37;98442.88;4892444;29;20048;-56
2022/10/27 09:48:06;;;;;;;9.57;3.88;;;16.90;97.70;;;19.53;55.67;98446.47;4909263;29;20082;-57
2022/10/27 09:51:00;;;;;;;7.15;3.17;;;17.00;97.00;;;19.58;55.58;98452.13;4893216;29;20259;-54
2022/10/27 09:53:47;;;;;;;9.00;3.63;;;17.00;95.40;;;19.63;55.20;98452.34;4892844;29;20044;-54
2022/10/27 09:56:37;;;;;;;6.68;3.33;;;17.00;95.40;;;19.66;55.39;98443.03;4908591;29;20062;-57
2022/10/27 09:59:05;;;;;;;8.60;3.47;;;17.10;96.00;;;19.71;55.24;98445.09;4909043;29;20343;-56
2022/10/27 10:01:42;;;;;;;9.95;4.00;;;17.10;96.50;;;19.79;55.18;98455.78;4890278;29;20060;-54
2022/10/27 10:04:32;;;;;;;5.97;2.85;;;17.20;96.20;;;19.84;55.18;98454.13;4908546;29;20263;-56
2022/10/27 10:07:04;;;;;;;6.07;3.47;;;17.30;95.60;;;19.91;54.89;98447.91;4892787;29;20044;-57
2022/10/27 10:09:39;;;;;;;11.57;3.63;;;17.30;96.50;;;19.97;54.67;98453.38;4909206;29;20041;-56
2022/10/27 10:12:25;;;;;;;9.65;3.60;;;17.40;95.10;;;20.02;54.31;98447.34;4908339;29;20568;-57
2022/10/27 10:15:16;;;;;;;8.20;3.47;;;17.40;91.60;;;20.04;53.90;98437.16;4891682;29;20056;-53
2022/10/27 10:18:00;;;;;;;9.57;3.38;;;17.50;90.70;;;20.12;53.69;98444.25;4908903;29;20247;-56
2022/10/27 10:20:42;;;;;;;;;;;17.60;91.00;;;20.28;53.88;98430.38;4909246;29;20074;-56
2022/10/27 10:23:23;;;;;;;7.20;2.92;;;17.60;88.70;;;20.26;53.52;98432.47;4908731;29;19920;-54
2022/10/27 10:25:55;;;;;;;5.70;3.47;;;17.60;90.70;;;20.29;53.64;98434.75;4891741;29;20074;-55
2022/10/27 10:28:44;;;;;;;4.10;2.70;;;17.70;91.80;;;20.36;53.43;98438.31;4892509;29;20366;-57
2022/10/27 10:31:20;;;;;;;12.38;3.42;;;17.80;89.80;;;20.42;52.83;98431.25;4908437;29;20061;-55
2022/10/27 10:33:48;;;;;;;6.18;4.30;;;17.80;89.90;;;20.43;52.30;98441.00;4892792;29;20060;-56
2022/10/27 10:36:24;;;;;;;7.15;2.78;;;17.90;89.10;;;20.46;51.95;98440.59;4908144;29;20070;-56
2022/10/27 10:38:57;;;;;;;7.10;2.60;;;18.00;87.50;;;20.54;51.79;98437.69;4908178;29;20054;-57
2022/10/27 10:41:28;;;;;;;8.50;2.95;;;18.00;86.20;;;20.58;51.54;98430.00;4908418;29;20048;-54